createdAt,value
2023-05-05T00:00:09.094Z,20.05
2023-05-05T00:02:10.766Z,21.58
2023-05-05T00:04:12.226Z,21.73
2023-05-05T00:06:13.650Z,21.05
2023-05-05T00:08:15.302Z,19.95
2023-05-05T00:10:16.788Z,23.38
2023-05-05T00:12:18.194Z,22.60
2023-05-05T00:14:19.591Z,20.63
2023-05-05T00:16:21.043Z,23.75
2023-05-05T00:18:22.600Z,21.75
2023-05-05T00:20:24.074Z,23.33
2023-05-05T00:22:25.722Z,28.48
2023-05-05T00:24:27.131Z,21.52
2023-05-05T00:26:28.617Z,22.23
2023-05-05T00:28:30.103Z,23.95
2023-05-05T00:30:31.767Z,19.38
2023-05-05T00:32:33.318Z,23.13
2023-05-05T00:34:34.767Z,20.17
2023-05-05T00:36:36.213Z,20.88
2023-05-05T00:38:38.143Z,18.13
2023-05-05T00:40:39.641Z,20.92
2023-05-05T00:42:41.699Z,19.55
2023-05-05T00:44:43.199Z,19.63
2023-05-05T00:46:44.861Z,20.00
2023-05-05T00:48:46.505Z,21.17
2023-05-05T00:50:47.911Z,19.80
2023-05-05T00:52:49.910Z,18.75
2023-05-05T00:54:51.506Z,24.98
2023-05-05T00:56:53.473Z,24.10
2023-05-05T00:58:55.242Z,21.05
2023-05-05T01:00:56.649Z,24.23
2023-05-05T01:02:58.178Z,25.48
2023-05-05T01:05:00.276Z,28.17
2023-05-05T01:07:02.111Z,22.30
2023-05-05T01:09:24.056Z,22.38
2023-05-05T01:11:27.166Z,22.58
2023-05-05T01:13:35.302Z,18.83
2023-05-05T01:15:40.578Z,19.67
2023-05-05T01:17:43.548Z,20.60
2023-05-05T01:19:58.402Z,24.48
2023-05-05T01:22:02.012Z,24.08
2023-05-05T01:24:11.037Z,20.42
2023-05-05T01:26:12.475Z,16.13
2023-05-05T01:28:27.690Z,24.42
2023-05-05T01:30:31.877Z,28.67
2023-05-05T01:32:35.358Z,31.02
2023-05-05T01:34:51.177Z,39.65
2023-05-05T01:36:58.382Z,30.13
2023-05-05T01:39:02.087Z,31.75
2023-05-05T01:44:02.914Z,33.70
2023-05-05T01:46:19.945Z,28.77
2023-05-05T01:48:22.897Z,33.33
2023-05-05T01:50:25.678Z,28.48
2023-05-05T01:52:28.105Z,29.10
2023-05-05T01:54:30.397Z,28.35
2023-05-05T01:56:32.428Z,26.60
2023-05-05T01:58:34.576Z,27.17
2023-05-05T02:00:36.066Z,26.95
2023-05-05T02:02:39.380Z,27.52
2023-05-05T02:04:41.772Z,35.03
2023-05-05T02:06:44.521Z,27.77
2023-05-05T02:08:47.209Z,28.50
2023-05-05T02:10:49.801Z,26.10
2023-05-05T02:12:52.094Z,29.63
2023-05-05T02:14:54.171Z,27.92
2023-05-05T02:16:56.453Z,29.23
2023-05-05T02:18:59.461Z,36.45
2023-05-05T02:21:01.095Z,33.35
2023-05-05T02:23:04.704Z,32.75
2023-05-05T02:25:06.741Z,39.15
2023-05-05T02:27:08.573Z,43.53
2023-05-05T02:29:16.518Z,37.03
2023-05-05T02:31:19.826Z,38.50
2023-05-05T02:33:22.019Z,31.63
2023-05-05T02:35:26.226Z,30.23
2023-05-05T02:37:28.833Z,33.00
2023-05-05T02:39:35.649Z,30.48
2023-05-05T02:41:38.286Z,28.25
2023-05-05T02:43:40.961Z,31.42
2023-05-05T02:45:42.354Z,37.97
2023-05-05T02:47:43.861Z,30.33
2023-05-05T02:49:45.260Z,26.35
2023-05-05T02:51:46.735Z,34.92
2023-05-05T02:53:48.298Z,30.83
2023-05-05T02:56:01.802Z,26.55
2023-05-05T02:58:06.645Z,29.30
2023-05-05T03:00:12.204Z,29.23
2023-05-05T03:02:20.611Z,21.80
2023-05-05T03:04:42.626Z,23.23
2023-05-05T03:06:47.414Z,21.55
2023-05-05T03:09:01.115Z,25.80
2023-05-05T03:11:06.751Z,22.77
2023-05-05T03:13:09.283Z,20.20
2023-05-05T03:15:11.127Z,17.60
2023-05-05T03:17:13.007Z,15.73
2023-05-05T03:19:15.615Z,13.70
2023-05-05T03:21:17.268Z,15.30
2023-05-05T03:23:21.032Z,14.63
2023-05-05T03:25:22.719Z,16.42
2023-05-05T03:27:24.126Z,18.55
2023-05-05T03:29:25.552Z,15.10
2023-05-05T03:31:28.499Z,15.63
2023-05-05T03:33:30.013Z,19.30
2023-05-05T03:35:31.472Z,18.27
2023-05-05T03:37:32.948Z,19.15
2023-05-05T03:39:34.355Z,14.43
2023-05-05T03:41:35.953Z,14.43
2023-05-05T03:43:39.320Z,14.00
2023-05-05T03:45:40.783Z,23.13
2023-05-05T03:47:42.327Z,17.25
2023-05-05T03:49:43.756Z,16.38
2023-05-05T03:51:45.183Z,17.17
2023-05-05T03:53:46.683Z,17.48
2023-05-05T03:55:48.233Z,20.25
2023-05-05T03:57:49.654Z,18.13
2023-05-05T03:59:51.183Z,16.10
2023-05-05T04:01:52.638Z,17.48
2023-05-05T04:03:54.139Z,13.32
2023-05-05T04:05:55.952Z,17.70
2023-05-05T04:07:58.409Z,17.88
2023-05-05T04:10:00.171Z,16.70
2023-05-05T04:12:03.098Z,15.45
2023-05-05T04:14:04.531Z,16.75
2023-05-05T04:16:06.120Z,17.20
2023-05-05T04:18:07.718Z,16.88
2023-05-05T04:20:09.685Z,15.77
2023-05-05T04:22:11.449Z,14.75
2023-05-05T04:24:12.850Z,16.77
2023-05-05T04:26:14.290Z,13.90
2023-05-05T04:28:15.933Z,16.90
2023-05-05T04:30:17.327Z,18.83
2023-05-05T04:32:18.804Z,19.58
2023-05-05T04:34:20.223Z,20.00
2023-05-05T04:36:21.646Z,22.90
2023-05-05T04:38:23.102Z,22.27
2023-05-05T04:40:26.296Z,20.05
2023-05-05T04:42:27.786Z,19.90
2023-05-05T04:44:29.169Z,15.02
2023-05-05T04:46:30.957Z,17.17
2023-05-05T04:48:32.555Z,16.92
2023-05-05T04:50:33.966Z,18.48
2023-05-05T04:52:35.389Z,17.33
2023-05-05T04:54:37.490Z,34.85
2023-05-05T04:56:38.917Z,24.52
2023-05-05T04:58:40.343Z,22.27
2023-05-05T05:00:41.824Z,18.08
2023-05-05T05:02:43.305Z,30.13
2023-05-05T05:04:44.785Z,36.78
2023-05-05T05:06:46.289Z,14.25
2023-05-05T05:08:47.694Z,15.40
2023-05-05T05:10:49.116Z,14.70
2023-05-05T05:12:50.705Z,16.80
2023-05-05T05:14:52.203Z,22.95
2023-05-05T05:16:53.764Z,65.10
2023-05-05T05:18:55.192Z,19.27
2023-05-05T05:20:56.657Z,18.52
2023-05-05T05:22:58.124Z,18.58
2023-05-05T05:24:59.522Z,17.60
2023-05-05T05:27:01.374Z,22.73
2023-05-05T05:29:02.791Z,20.17
2023-05-05T05:31:04.857Z,19.35
2023-05-05T05:33:06.806Z,20.30
2023-05-05T05:35:08.396Z,16.50
2023-05-05T05:37:09.785Z,23.88
2023-05-05T05:39:11.181Z,17.83
2023-05-05T05:41:12.637Z,15.50
2023-05-05T05:43:14.058Z,17.92
2023-05-05T05:45:15.463Z,16.45
2023-05-05T05:47:16.996Z,18.40
2023-05-05T05:49:18.417Z,16.63
2023-05-05T05:51:19.815Z,16.02
2023-05-05T05:53:21.885Z,14.75
2023-05-05T05:55:23.340Z,11.77
2023-05-05T05:57:24.857Z,16.02
2023-05-05T05:59:26.508Z,17.95
2023-05-05T06:01:27.966Z,12.10
2023-05-05T06:03:29.462Z,13.90
2023-05-05T06:05:31.424Z,15.38
2023-05-05T06:07:32.829Z,14.15
2023-05-05T06:09:34.258Z,21.83
2023-05-05T06:11:37.046Z,14.18
2023-05-05T06:13:38.449Z,21.13
2023-05-05T06:15:39.860Z,12.65
2023-05-05T06:17:41.401Z,16.38
2023-05-05T06:19:43.406Z,12.43
2023-05-05T06:21:44.952Z,16.20
2023-05-05T06:23:46.949Z,11.88
2023-05-05T06:25:48.330Z,10.13
2023-05-05T06:27:49.804Z,10.27
2023-05-05T06:29:51.389Z,12.73
2023-05-05T06:31:53.033Z,10.27
2023-05-05T06:33:54.840Z,9.82
2023-05-05T06:35:56.352Z,10.18
2023-05-05T06:37:57.737Z,10.35
2023-05-05T06:39:59.194Z,10.55
2023-05-05T06:42:00.584Z,12.35
2023-05-05T06:44:01.994Z,10.38
2023-05-05T06:46:03.457Z,8.73
2023-05-05T06:48:04.874Z,17.17
2023-05-05T06:50:07.176Z,8.27
2023-05-05T06:52:08.814Z,12.02
2023-05-05T06:54:10.198Z,13.88
2023-05-05T06:56:11.650Z,9.48
2023-05-05T06:58:13.235Z,9.98
2023-05-05T07:00:15.221Z,14.25
2023-05-05T07:02:16.656Z,7.63
2023-05-05T07:04:18.077Z,12.15
2023-05-05T07:06:19.542Z,23.35
2023-05-05T07:08:20.983Z,9.88
2023-05-05T07:10:23.098Z,9.05
2023-05-05T07:12:24.557Z,7.18
2023-05-05T07:14:26.209Z,9.27
2023-05-05T07:16:27.655Z,8.45
2023-05-05T07:18:29.118Z,7.80
2023-05-05T07:20:30.548Z,8.13
2023-05-05T07:22:31.963Z,6.35
2023-05-05T07:24:33.391Z,4.95
2023-05-05T07:26:34.858Z,5.57
2023-05-05T07:28:36.346Z,5.03
2023-05-05T07:30:37.758Z,4.78
2023-05-05T07:32:39.336Z,4.78
2023-05-05T07:34:40.973Z,6.20
2023-05-05T07:36:42.401Z,7.05
2023-05-05T07:38:43.937Z,6.35
2023-05-05T07:40:45.429Z,4.45
2023-05-05T07:42:47.533Z,6.82
2023-05-05T07:44:48.950Z,7.35
2023-05-05T07:46:50.380Z,5.05
2023-05-05T07:48:51.817Z,5.10
2023-05-05T07:50:53.234Z,3.78
2023-05-05T07:53:02.350Z,3.75
2023-05-05T07:55:07.527Z,8.32
2023-05-05T07:57:08.926Z,5.47
2023-05-05T07:59:11.231Z,8.73
2023-05-05T08:01:13.216Z,5.20
2023-05-05T08:03:14.708Z,9.18
2023-05-05T08:05:16.816Z,6.15
2023-05-05T08:07:18.289Z,3.80
2023-05-05T08:09:19.831Z,4.20
2023-05-05T08:11:21.907Z,5.75
2023-05-05T08:13:23.325Z,10.90
2023-05-05T08:15:24.810Z,4.80
2023-05-05T08:17:27.135Z,4.55
2023-05-05T08:19:29.595Z,3.65
2023-05-05T08:21:31.795Z,5.43
2023-05-05T08:23:33.686Z,3.80
2023-05-05T08:25:35.104Z,4.28
2023-05-05T08:27:37.862Z,4.55
2023-05-05T08:29:39.405Z,3.90
2023-05-05T08:31:40.914Z,5.15
2023-05-05T08:33:42.610Z,3.67
2023-05-05T08:35:44.157Z,6.80
2023-05-05T08:37:45.582Z,3.95
2023-05-05T08:39:47.028Z,3.97
2023-05-05T08:41:48.592Z,2.75
2023-05-05T08:43:50.595Z,7.25
2023-05-05T08:45:52.289Z,4.00
2023-05-05T08:47:55.323Z,3.53
2023-05-05T08:49:58.779Z,6.18
2023-05-05T08:52:01.429Z,5.93
2023-05-05T08:54:03.915Z,3.25
2023-05-05T08:56:05.530Z,5.53
2023-05-05T08:58:07.421Z,3.67
2023-05-05T09:00:10.938Z,3.17
2023-05-05T09:02:13.104Z,5.63
2023-05-05T09:04:14.616Z,3.28
2023-05-05T09:06:16.236Z,5.75
2023-05-05T09:08:17.814Z,3.42
2023-05-05T09:10:19.295Z,3.08
2023-05-05T09:12:21.694Z,2.50
2023-05-05T09:14:23.146Z,3.28
2023-05-05T09:16:24.662Z,2.70
2023-05-05T09:18:26.284Z,3.80
2023-05-05T09:20:37.670Z,4.75
2023-05-05T09:22:40.134Z,2.45
2023-05-05T09:24:54.542Z,3.92
2023-05-05T09:26:58.551Z,5.13
2023-05-05T09:29:01.257Z,4.35
2023-05-05T09:31:12.711Z,3.60
2023-05-05T09:33:14.410Z,5.05
2023-05-05T09:35:16.577Z,3.72
2023-05-05T09:37:27.088Z,5.10
2023-05-05T09:39:28.586Z,4.55
2023-05-05T09:41:36.640Z,4.95
2023-05-05T09:43:51.764Z,3.22
2023-05-05T09:46:04.995Z,3.20
2023-05-05T09:48:06.694Z,2.50
2023-05-05T09:50:10.896Z,4.40
2023-05-05T09:52:15.891Z,4.93
2023-05-05T09:54:27.531Z,3.78
2023-05-05T09:56:39.697Z,5.68
2023-05-05T09:58:41.948Z,4.13
2023-05-05T10:00:43.672Z,3.22
2023-05-05T10:02:45.526Z,4.65
2023-05-05T10:04:47.034Z,5.55
2023-05-05T10:06:48.657Z,3.25
2023-05-05T10:09:00.656Z,4.60
2023-05-05T10:11:06.941Z,4.40
2023-05-05T10:13:09.747Z,8.57
2023-05-05T10:15:12.041Z,5.28
2023-05-05T10:17:14.898Z,2.90
2023-05-05T10:19:20.209Z,5.82
2023-05-05T10:21:21.792Z,4.85
2023-05-05T10:23:24.433Z,4.53
2023-05-05T10:25:35.353Z,3.75
2023-05-05T10:27:44.740Z,4.75
2023-05-05T10:30:06.314Z,4.13
2023-05-05T10:32:55.632Z,4.97
2023-05-05T10:34:56.907Z,2.80
2023-05-05T10:37:00.270Z,5.18
2023-05-05T10:39:03.052Z,3.72
2023-05-05T10:41:04.570Z,7.60
2023-05-05T10:43:07.579Z,6.88
2023-05-05T10:45:09.722Z,3.33
2023-05-05T10:47:11.916Z,6.32
2023-05-05T10:49:33.319Z,4.68
2023-05-05T10:51:40.313Z,5.57
2023-05-05T10:53:49.286Z,4.57
2023-05-05T10:55:53.488Z,13.05
2023-05-05T10:57:54.935Z,3.03
2023-05-05T10:59:56.394Z,4.68
2023-05-05T11:01:57.834Z,4.97
2023-05-05T11:04:18.312Z,20.25
2023-05-05T11:06:19.863Z,4.78
2023-05-05T11:08:25.684Z,7.03
2023-05-05T11:10:43.452Z,4.05
2023-05-05T11:12:54.282Z,4.38
2023-05-05T11:15:14.385Z,10.02
2023-05-05T11:17:45.781Z,2.85
2023-05-05T11:19:48.406Z,7.03
2023-05-05T11:22:00.035Z,5.88
2023-05-05T11:24:17.949Z,7.80
2023-05-05T11:26:39.300Z,3.90
2023-05-05T11:28:56.386Z,3.17
2023-05-05T11:31:00.829Z,4.55
2023-05-05T11:33:20.851Z,2.55
2023-05-05T11:35:22.275Z,6.22
2023-05-05T11:37:24.503Z,3.35
2023-05-05T11:39:47.252Z,69.68
2023-05-05T11:42:02.942Z,3.30
2023-05-05T11:44:14.127Z,5.63
2023-05-05T11:46:16.881Z,6.43
2023-05-05T11:48:26.048Z,5.80
2023-05-05T11:50:27.678Z,2.37
2023-05-05T11:52:29.230Z,2.65
2023-05-05T11:54:31.081Z,3.58
2023-05-05T11:56:32.539Z,3.55
2023-05-05T11:58:33.958Z,3.30
2023-05-05T12:00:36.563Z,3.88
2023-05-05T12:02:38.115Z,3.90
2023-05-05T12:04:39.968Z,4.30
2023-05-05T12:06:42.316Z,2.65
2023-05-05T12:08:43.792Z,6.43
2023-05-05T12:10:45.202Z,5.15
2023-05-05T12:12:47.212Z,3.60
2023-05-05T12:14:50.306Z,3.47
2023-05-05T12:17:07.149Z,4.55
2023-05-05T12:19:08.724Z,3.13
2023-05-05T12:21:16.742Z,2.28
2023-05-05T12:23:18.152Z,2.88
2023-05-05T12:25:19.584Z,3.03
2023-05-05T12:27:21.131Z,3.67
2023-05-05T12:29:26.271Z,5.70
2023-05-05T12:31:37.680Z,3.55
2023-05-05T12:33:39.869Z,3.65
2023-05-05T12:35:41.766Z,4.15
2023-05-05T12:37:43.599Z,4.30
2023-05-05T12:39:45.401Z,2.85
2023-05-05T12:41:46.956Z,6.13
2023-05-05T12:43:54.276Z,5.10
2023-05-05T12:46:22.323Z,2.20
2023-05-05T12:48:23.930Z,5.60
2023-05-05T12:50:31.855Z,3.20
2023-05-05T12:52:45.785Z,3.15
2023-05-05T12:54:54.865Z,3.30
2023-05-05T12:56:59.679Z,5.28
2023-05-05T12:59:01.827Z,4.30
2023-05-05T13:01:10.621Z,5.75
2023-05-05T13:03:19.411Z,3.42
2023-05-05T13:05:31.602Z,3.80
2023-05-05T13:07:33.001Z,6.57
2023-05-05T13:09:34.784Z,3.65
2023-05-05T13:11:37.298Z,4.38
2023-05-05T13:13:38.767Z,3.63
2023-05-05T13:15:40.275Z,11.48
2023-05-05T13:17:41.850Z,7.38
2023-05-05T13:19:46.741Z,9.07
2023-05-05T13:21:48.634Z,4.53
2023-05-05T13:23:50.280Z,6.95
2023-05-05T13:25:51.726Z,5.13
2023-05-05T13:27:53.206Z,2.38
2023-05-05T13:29:54.613Z,5.30
2023-05-05T13:31:56.028Z,3.58
2023-05-05T13:33:57.516Z,4.50
2023-05-05T13:35:59.014Z,6.93
2023-05-05T13:38:00.716Z,3.75
2023-05-05T13:40:02.324Z,5.25
2023-05-05T13:42:03.795Z,3.50
2023-05-05T13:44:05.234Z,2.97
2023-05-05T13:46:19.164Z,3.13
2023-05-05T13:48:21.723Z,3.15
2023-05-05T13:50:23.966Z,2.50
2023-05-05T13:52:25.392Z,4.28
2023-05-05T13:54:26.975Z,3.97
2023-05-05T13:56:28.597Z,2.47
2023-05-05T13:58:30.451Z,3.33
2023-05-05T14:00:32.647Z,3.17
2023-05-05T14:02:34.240Z,3.08
2023-05-05T14:04:36.160Z,3.25
2023-05-05T14:06:37.661Z,2.20
2023-05-05T14:08:39.147Z,4.07
2023-05-05T14:10:40.728Z,2.38
2023-05-05T14:12:42.203Z,2.38
2023-05-05T14:14:43.616Z,3.80
2023-05-05T14:16:45.089Z,3.30
2023-05-05T14:18:46.623Z,2.88
2023-05-05T14:20:48.007Z,2.08
2023-05-05T14:22:49.516Z,3.28
2023-05-05T14:24:50.993Z,3.10
2023-05-05T14:26:52.447Z,4.05
2023-05-05T14:28:53.924Z,3.03
2023-05-05T14:30:55.456Z,3.45
2023-05-05T14:32:56.932Z,3.55
2023-05-05T14:34:58.327Z,2.38
2023-05-05T14:36:59.738Z,3.47
2023-05-05T14:39:01.138Z,3.30
2023-05-05T14:41:02.700Z,2.20
2023-05-05T14:43:04.129Z,4.90
2023-05-05T14:45:06.538Z,4.72
2023-05-05T14:47:08.184Z,3.85
2023-05-05T14:49:09.575Z,4.82
2023-05-05T14:51:11.003Z,7.68
2023-05-05T14:53:12.405Z,3.13
2023-05-05T14:55:13.852Z,5.18
2023-05-05T14:57:15.388Z,2.88
2023-05-05T14:59:16.799Z,4.32
2023-05-05T15:01:18.754Z,8.02
2023-05-05T15:03:20.678Z,4.25
2023-05-05T15:05:22.161Z,6.72
2023-05-05T15:07:28.322Z,4.50
2023-05-05T15:09:29.731Z,3.75
2023-05-05T15:11:31.106Z,2.38
2023-05-05T15:13:32.601Z,2.80
2023-05-05T15:15:33.996Z,2.08
2023-05-05T15:17:37.526Z,3.92
2023-05-05T15:19:39.129Z,2.30
2023-05-05T15:21:40.604Z,3.45
2023-05-05T15:23:42.055Z,3.70
2023-05-05T15:25:43.469Z,4.03
2023-05-05T15:27:45.126Z,3.42
2023-05-05T15:29:46.552Z,4.70
2023-05-05T15:31:48.085Z,3.67
2023-05-05T15:33:51.142Z,3.42
2023-05-05T15:35:52.561Z,2.80
2023-05-05T15:37:54.415Z,5.35
2023-05-05T15:39:56.046Z,3.53
2023-05-05T15:41:57.551Z,5.00
2023-05-05T15:43:59.041Z,4.07
2023-05-05T15:46:00.526Z,3.58
2023-05-05T15:48:02.005Z,3.47
2023-05-05T15:50:03.564Z,3.50
2023-05-05T15:52:05.207Z,21.83
2023-05-05T15:54:06.616Z,9.10
2023-05-05T15:56:08.153Z,4.70
2023-05-05T15:58:09.603Z,5.13
2023-05-05T16:00:11.295Z,26.40
2023-05-05T16:02:12.771Z,12.40
2023-05-05T16:04:14.223Z,7.43
2023-05-05T16:06:15.737Z,8.93
2023-05-05T16:08:17.151Z,11.52
2023-05-05T16:10:19.449Z,26.83
2023-05-05T16:12:21.044Z,26.83
2023-05-05T16:14:22.503Z,23.27
2023-05-05T16:16:23.902Z,26.60
2023-05-05T16:18:25.404Z,24.13
2023-05-05T16:20:26.878Z,9.38
2023-05-05T16:22:28.298Z,12.35
2023-05-05T16:24:29.758Z,4.72
2023-05-05T16:26:31.274Z,4.63
2023-05-05T16:28:34.345Z,6.03
2023-05-05T16:30:36.004Z,8.70
2023-05-05T16:32:37.475Z,8.18
2023-05-05T16:34:38.894Z,6.80
2023-05-05T16:36:41.228Z,6.53
2023-05-05T16:38:44.124Z,9.90
2023-05-05T16:40:45.976Z,4.75
2023-05-05T16:42:47.427Z,6.28
2023-05-05T16:44:48.832Z,8.10
2023-05-05T16:46:50.420Z,8.43
2023-05-05T16:48:51.830Z,7.57
2023-05-05T16:50:53.221Z,14.43
2023-05-05T16:52:54.671Z,21.75
2023-05-05T16:54:56.627Z,15.65
2023-05-05T16:56:58.233Z,34.72
2023-05-05T16:58:59.628Z,15.23
2023-05-05T17:01:02.823Z,24.85
2023-05-05T17:03:04.227Z,9.57
2023-05-05T17:05:06.026Z,27.30
2023-05-05T17:07:07.622Z,29.35
2023-05-05T17:09:09.081Z,24.50
2023-05-05T17:11:11.758Z,52.90
2023-05-05T17:13:14.297Z,42.85
2023-05-05T17:15:16.112Z,26.73
2023-05-05T17:17:17.548Z,27.77
2023-05-05T17:19:18.954Z,18.60
2023-05-05T17:21:20.395Z,16.98
2023-05-05T17:23:21.852Z,12.43
2023-05-05T17:25:23.468Z,14.48
2023-05-05T17:27:24.985Z,17.70
2023-05-05T17:29:26.595Z,18.15
2023-05-05T17:31:28.096Z,10.27
2023-05-05T17:33:29.563Z,16.40
2023-05-05T17:35:31.019Z,25.02
2023-05-05T17:37:33.725Z,26.60
2023-05-05T17:39:35.142Z,16.58
2023-05-05T17:41:36.591Z,12.02
2023-05-05T17:43:38.016Z,24.55
2023-05-05T17:45:39.449Z,25.73
2023-05-05T17:47:40.961Z,28.77
2023-05-05T17:49:42.485Z,32.45
2023-05-05T17:51:43.897Z,23.88
2023-05-05T17:53:45.402Z,15.20
2023-05-05T17:55:47.070Z,16.02
2023-05-05T17:57:48.491Z,18.10
2023-05-05T17:59:50.433Z,21.70
2023-05-05T18:01:51.887Z,13.30
2023-05-05T18:03:53.447Z,21.67
2023-05-05T18:05:54.920Z,22.38
2023-05-05T18:07:56.320Z,13.00
2023-05-05T18:09:57.772Z,17.95
2023-05-05T18:11:59.158Z,17.08
2023-05-05T18:14:00.616Z,17.67
2023-05-05T18:16:02.096Z,12.93
2023-05-05T18:18:03.533Z,13.63
2023-05-05T18:20:07.079Z,13.68
2023-05-05T18:22:08.502Z,13.70
2023-05-05T18:24:19.227Z,17.33
2023-05-05T18:26:21.631Z,18.20
2023-05-05T18:28:23.290Z,16.77
2023-05-05T18:30:24.750Z,19.77
2023-05-05T18:32:26.259Z,17.67
2023-05-05T18:34:29.462Z,14.95
2023-05-05T18:36:31.553Z,13.25
2023-05-05T18:38:32.975Z,15.68
2023-05-05T18:40:34.416Z,12.80
2023-05-05T18:42:36.142Z,16.02
2023-05-05T18:44:37.561Z,31.33
2023-05-05T18:46:39.228Z,40.17
2023-05-05T18:48:40.848Z,41.42
2023-05-05T18:50:42.360Z,42.25
2023-05-05T18:52:43.742Z,52.28
2023-05-05T18:54:45.198Z,24.38
2023-05-05T18:56:46.598Z,23.75
2023-05-05T18:58:48.036Z,38.72
2023-05-05T19:00:49.517Z,34.22
2023-05-05T19:02:51.338Z,26.10
2023-05-05T19:04:52.969Z,21.17
2023-05-05T19:06:54.386Z,21.00
2023-05-05T19:08:56.852Z,13.63
2023-05-05T19:10:58.365Z,14.20
2023-05-05T19:12:59.825Z,12.77
2023-05-05T19:15:01.487Z,7.85
2023-05-05T19:17:03.028Z,16.35
2023-05-05T19:19:04.661Z,9.05
2023-05-05T19:21:06.204Z,8.48
2023-05-05T19:23:07.787Z,11.30
2023-05-05T19:25:09.682Z,10.95
2023-05-05T19:27:15.508Z,10.00
2023-05-05T19:29:18.045Z,7.05
2023-05-05T19:31:19.889Z,12.88
2023-05-05T19:33:21.435Z,11.43
2023-05-05T19:35:22.926Z,7.72
2023-05-05T19:37:24.389Z,15.20
2023-05-05T19:39:25.802Z,14.02
2023-05-05T19:41:27.701Z,16.25
2023-05-05T19:43:29.105Z,12.48
2023-05-05T19:45:31.605Z,15.98
2023-05-05T19:47:33.267Z,15.52
2023-05-05T19:49:34.740Z,8.27
2023-05-05T19:51:36.170Z,8.77
2023-05-05T19:53:37.626Z,12.60
2023-05-05T19:55:39.077Z,10.25
2023-05-05T19:57:40.627Z,10.50
2023-05-05T19:59:42.111Z,8.68
2023-05-05T20:01:43.616Z,9.27
2023-05-05T20:03:45.174Z,8.30
2023-05-05T20:05:46.778Z,9.05
2023-05-05T20:07:48.166Z,9.57
2023-05-05T20:09:49.876Z,12.10
2023-05-05T20:11:51.440Z,9.52
2023-05-05T20:13:53.455Z,12.90
2023-05-05T20:15:54.991Z,10.80
2023-05-05T20:17:56.594Z,11.20
2023-05-05T20:19:58.070Z,10.65
2023-05-05T20:21:59.545Z,10.80
2023-05-05T20:24:01.139Z,14.80
2023-05-05T20:26:02.606Z,14.05
2023-05-05T20:28:04.188Z,18.58
2023-05-05T20:30:06.457Z,25.27
2023-05-05T20:32:08.062Z,19.77
2023-05-05T20:34:09.520Z,27.40
2023-05-05T20:36:11.368Z,31.15
2023-05-05T20:38:12.779Z,26.75
2023-05-05T20:40:14.257Z,34.13
2023-05-05T20:42:15.699Z,28.63
2023-05-05T20:44:17.296Z,30.38
2023-05-05T20:46:18.738Z,28.15
2023-05-05T20:48:20.380Z,18.48
2023-05-05T20:50:21.771Z,13.43
2023-05-05T20:52:23.172Z,12.50
2023-05-05T20:54:24.580Z,12.32
2023-05-05T20:56:25.976Z,11.50
2023-05-05T20:58:27.494Z,12.40
2023-05-05T21:00:29.075Z,11.90
2023-05-05T21:02:31.783Z,11.98
2023-05-05T21:04:33.406Z,9.77
2023-05-05T21:06:34.830Z,10.32
2023-05-05T21:08:36.303Z,10.55
2023-05-05T21:10:38.434Z,10.43
2023-05-05T21:12:40.011Z,7.90
2023-05-05T21:14:45.343Z,15.57
2023-05-05T21:16:46.858Z,11.30
2023-05-05T21:18:48.249Z,8.75
2023-05-05T21:20:49.675Z,10.73
2023-05-05T21:22:51.118Z,13.05
2023-05-05T21:24:52.645Z,18.40
2023-05-05T21:26:54.683Z,8.05
2023-05-05T21:28:56.328Z,8.68
2023-05-05T21:31:19.770Z,11.70
2023-05-05T21:33:19.209Z,12.48
2023-05-05T21:35:21.123Z,10.95
2023-05-05T21:37:22.648Z,10.45
2023-05-05T21:39:24.080Z,13.30
2023-05-05T21:41:25.712Z,11.90
2023-05-05T21:43:30.303Z,11.27
2023-05-05T21:45:31.711Z,11.10
2023-05-05T21:47:33.108Z,10.35
2023-05-05T21:49:34.604Z,9.20
2023-05-05T21:51:37.276Z,12.23
2023-05-05T21:53:39.910Z,11.52
2023-05-05T21:55:41.316Z,16.85
2023-05-05T21:57:43.086Z,20.45
2023-05-05T21:59:44.503Z,11.35
2023-05-05T22:01:45.941Z,13.43
2023-05-05T22:03:47.867Z,10.75
2023-05-05T22:05:49.372Z,9.55
2023-05-05T22:07:50.756Z,11.30
2023-05-05T22:09:52.739Z,12.45
2023-05-05T22:11:54.189Z,11.57
2023-05-05T22:13:56.395Z,9.63
2023-05-05T22:15:57.873Z,15.13
2023-05-05T22:17:59.324Z,11.52
2023-05-05T22:20:00.757Z,12.38
2023-05-05T22:22:02.829Z,10.63
2023-05-05T22:24:04.619Z,10.52
2023-05-05T22:26:06.191Z,9.95
2023-05-05T22:28:07.601Z,13.07
2023-05-05T22:30:09.257Z,11.23
2023-05-05T22:32:11.387Z,11.52
2023-05-05T22:34:12.793Z,11.50
2023-05-05T22:36:14.320Z,16.42
2023-05-05T22:38:15.738Z,17.00
2023-05-05T22:40:17.179Z,7.22
2023-05-05T22:42:18.604Z,7.72
2023-05-05T22:44:20.024Z,11.30
2023-05-05T22:46:21.493Z,13.32
2023-05-05T22:48:22.986Z,9.52
2023-05-05T22:50:24.484Z,11.30
2023-05-05T22:52:28.369Z,13.40
2023-05-05T22:54:29.804Z,10.07
2023-05-05T22:56:31.232Z,9.10
2023-05-05T22:58:32.637Z,10.95
2023-05-05T23:00:34.061Z,11.45
2023-05-05T23:02:35.534Z,11.05
2023-05-05T23:04:37.010Z,11.02
2023-05-05T23:06:40.235Z,13.85
2023-05-05T23:08:41.975Z,9.43
2023-05-05T23:10:43.493Z,8.75
2023-05-05T23:12:44.894Z,8.05
2023-05-05T23:14:46.429Z,10.30
2023-05-05T23:16:47.993Z,26.08
2023-05-05T23:18:49.475Z,10.63
2023-05-05T23:20:50.906Z,9.60
2023-05-05T23:22:52.290Z,11.07
2023-05-05T23:24:53.654Z,6.35
2023-05-05T23:26:56.709Z,10.18
2023-05-05T23:28:58.077Z,11.25
2023-05-05T23:30:59.555Z,10.27
2023-05-05T23:33:01.272Z,8.25
2023-05-05T23:35:02.950Z,10.20
2023-05-05T23:37:06.183Z,11.15
2023-05-05T23:39:07.876Z,9.98
2023-05-05T23:41:09.276Z,15.00
2023-05-05T23:43:12.021Z,18.80
2023-05-05T23:45:13.612Z,16.15
2023-05-05T23:47:15.018Z,11.10
2023-05-05T23:49:16.417Z,8.57
2023-05-05T23:51:17.836Z,8.50
2023-05-05T23:53:19.502Z,12.00
2023-05-05T23:55:21.127Z,8.55
2023-05-05T23:57:22.517Z,9.88
2023-05-05T23:59:23.920Z,11.02
